Time;durP1;ratioP1;P1;durP2;ratioP2;P2;SDS_P1;SDS_P2;PMS_P1;PMS_P2;Temp;Humidity;BMP_temperature;BMP_pressure;BME280_temperature;BME280_humidity;BME280_pressure;Samples;Min_cycle;Max_cycle;Signal;HPM_P1;HPM_P2
2021/10/15 00:00:53;;;;;;;15.35;8.68;;;;;;;3.01;74.56;97631.55;1744382;82;25683;-84
2021/10/15 00:03:20;;;;;;;19.67;10.85;;;;;;;3.05;74.56;97628.89;1744104;80;25805;-85
2021/10/15 00:05:46;;;;;;;24.98;13.90;;;;;;;3.12;74.58;97627.77;1744349;82;25670;-85
2021/10/15 00:08:13;;;;;;;25.55;13.40;;;;;;;3.19;74.49;97624.30;1723360;80;28094;-85
2021/10/15 00:10:39;;;;;;;27.13;13.62;;;;;;;3.22;74.34;97617.31;1744359;82;25883;-85
2021/10/15 00:13:06;;;;;;;22.25;12.37;;;;;;;3.25;74.35;97623.67;1723426;80;25809;-86
2021/10/15 00:15:33;;;;;;;25.08;12.03;;;;;;;3.31;74.44;97629.34;1744362;80;26259;-85
2021/10/15 00:17:59;;;;;;;20.72;11.53;;;;;;;3.34;74.47;97623.70;1744410;80;26605;-85
2021/10/15 00:20:26;;;;;;;22.77;11.30;;;;;;;3.38;74.56;97623.19;1744176;82;28552;-84
2021/10/15 00:22:52;;;;;;;17.32;10.40;;;;;;;3.41;74.73;97634.05;1744172;80;25812;-85
2021/10/15 00:25:19;;;;;;;19.07;10.03;;;;;;;3.45;74.61;97634.08;1726302;80;25254;-84
2021/10/15 00:27:46;;;;;;;19.10;10.32;;;;;;;3.50;74.79;97633.11;1744385;82;25892;-85
2021/10/15 00:30:12;;;;;;;15.65;9.43;;;;;;;3.56;74.80;97623.10;1744280;82;25690;-84
2021/10/15 00:32:39;;;;;;;17.92;9.90;;;;;;;3.63;74.76;97618.77;1744343;82;27612;-84
2021/10/15 00:35:06;;;;;;;15.88;8.15;;;;;;;3.70;74.85;97623.81;1744363;82;25751;-84
2021/10/15 00:37:33;;;;;;;15.10;8.18;;;;;;;3.76;74.73;97617.80;1745991;82;25786;-84
2021/10/15 00:39:59;;;;;;;14.78;8.58;;;;;;;3.85;74.70;97617.34;1744270;82;25794;-85
2021/10/15 00:42:26;;;;;;;14.50;8.68;;;;;;;3.93;74.71;97622.19;1744459;81;25881;-84
2021/10/15 00:44:53;;;;;;;15.38;8.60;;;;;;;3.99;74.89;97617.52;1744259;82;27453;-84
2021/10/15 00:47:19;;;;;;;17.95;9.48;;;;;;;4.05;74.80;97609.85;1744332;82;25743;-85
2021/10/15 00:49:46;;;;;;;16.45;8.75;;;;;;;4.10;74.75;97608.37;1744260;82;26358;-85
2021/10/15 00:52:13;;;;;;;14.60;7.90;;;;;;;4.16;74.66;97599.67;1743527;80;26562;-84
2021/10/15 00:54:40;;;;;;;12.75;8.28;;;;;;;4.24;74.71;97601.50;1742823;81;26669;-84
2021/10/15 00:57:10;;;;;;;14.75;8.38;;;;;;;4.29;74.61;97597.34;1743623;82;28213;-85
2021/10/15 00:59:36;;;;;;;12.43;7.22;;;;;;;4.35;74.53;97599.33;1743426;82;25710;-85
2021/10/15 01:02:03;;;;;;;12.05;7.00;;;;;;;4.44;74.52;97594.84;1743497;82;25860;-85
2021/10/15 01:04:30;;;;;;;12.88;7.28;;;;;;;4.50;74.54;97589.30;1743371;80;25892;-85
2021/10/15 01:06:56;;;;;;;12.03;6.45;;;;;;;4.55;74.57;97589.14;1743471;82;25711;-85
2021/10/15 01:09:23;;;;;;;10.18;6.33;;;;;;;4.62;74.42;97590.13;1743264;82;27599;-85
2021/10/15 01:11:51;;;;;;;10.50;6.25;;;;;;;4.70;74.16;97587.45;1743136;80;25765;-85
2021/10/15 01:14:18;;;;;;;10.25;6.55;;;;;;;4.77;74.23;97580.07;1743380;80;25790;-85
2021/10/15 01:16:46;;;;;;;14.87;6.45;;;;;;;4.80;74.32;97581.08;1743568;80;25905;-85
2021/10/15 01:19:12;;;;;;;11.22;6.70;;;;;;;4.84;74.23;97577.03;1743576;80;26405;-85
2021/10/15 01:21:39;;;;;;;10.60;6.60;;;;;;;4.89;74.10;97576.86;1743472;80;27469;-85
2021/10/15 01:24:06;;;;;;;12.23;7.10;;;;;;;4.96;74.08;97574.33;1743502;82;25865;-84
2021/10/15 01:26:33;;;;;;;10.00;6.87;;;;;;;5.01;74.11;97573.31;1743426;80;25774;-85
2021/10/15 01:28:59;;;;;;;11.73;6.40;;;;;;;5.05;73.90;97573.31;1743483;80;25670;-86
2021/10/15 01:31:27;;;;;;;11.48;6.47;;;;;;;5.07;73.84;97570.77;1743534;80;25797;-85
2021/10/15 01:33:58;;;;;;;10.03;6.55;;;;;;;5.13;73.79;97569.26;1743599;82;27489;-85
2021/10/15 01:36:26;;;;;;;11.95;6.90;;;;;;;5.17;73.67;97565.23;1743553;80;25749;-85
2021/10/15 01:38:53;;;;;;;9.85;5.85;;;;;;;5.23;73.57;97563.19;1743323;82;25746;-85
2021/10/15 01:41:20;;;;;;;11.33;6.08;;;;;;;5.25;73.46;97551.81;1743466;80;25832;-85
2021/10/15 01:43:46;;;;;;;8.83;6.22;;;;;;;5.30;73.35;97557.48;1743574;80;25284;-86
2021/10/15 01:46:13;;;;;;;11.22;6.17;;;;;;;5.33;73.28;97550.42;1743570;80;27527;-85
2021/10/15 01:48:40;;;;;;;10.50;6.10;;;;;;;5.36;73.20;97551.92;1743353;80;25750;-85
2021/10/15 01:51:06;;;;;;;9.60;6.05;;;;;;;5.39;73.04;97550.24;1743467;80;25779;-85
2021/10/15 01:53:33;;;;;;;10.32;5.95;;;;;;;5.42;73.02;97550.73;1745342;80;25895;-85
2021/10/15 01:56:00;;;;;;;9.18;5.35;;;;;;;5.47;72.94;97550.19;1754760;80;25677;-85
2021/10/15 01:58:26;;;;;;;8.85;5.45;;;;;;;5.51;72.85;97542.65;1755026;80;27631;-86
2021/10/15 02:00:53;;;;;;;11.18;5.72;;;;;;;5.52;72.92;97538.97;1754810;80;25798;-85
2021/10/15 02:03:19;;;;;;;8.88;5.30;;;;;;;5.54;72.98;97545.81;1754959;80;25825;-85
2021/10/15 02:05:46;;;;;;;7.97;5.65;;;;;;;5.55;72.98;97543.47;1755029;81;25698;-85
2021/10/15 02:08:13;;;;;;;9.60;6.17;;;;;;;5.57;72.89;97548.12;1755072;80;25719;-85
2021/10/15 02:10:39;;;;;;;8.68;5.30;;;;;;;5.58;72.77;97547.11;1754918;80;28192;-85
2021/10/15 02:13:06;;;;;;;7.53;4.65;;;;;;;5.61;72.63;97540.07;1754803;80;25860;-85
2021/10/15 02:15:33;;;;;;;11.15;5.45;;;;;;;5.65;72.58;97541.91;1754938;80;25256;-85
2021/10/15 02:18:00;;;;;;;7.28;4.87;;;;;;;5.68;72.38;97537.50;1754674;80;25847;-84
2021/10/15 02:20:26;;;;;;;9.15;5.97;;;;;;;5.75;72.20;97539.82;1755004;81;25912;-84
2021/10/15 02:22:53;;;;;;;9.75;5.17;;;;;;;5.78;72.09;97534.95;1755028;80;27539;-84
2021/10/15 02:25:21;;;;;;;7.47;4.95;;;;;;;5.84;72.02;97533.39;1754850;80;25816;-85
2021/10/15 02:27:48;;;;;;;7.97;5.12;;;;;;;5.87;71.94;97533.55;1754985;80;25820;-85
2021/10/15 02:30:17;;;;;;;8.58;4.42;;;;;;;5.89;71.87;97531.05;1755110;80;25776;-85
2021/10/15 02:32:44;;;;;;;8.15;5.35;;;;;;;5.90;71.82;97524.69;1755121;80;25646;-85
2021/10/15 02:35:11;;;;;;;8.28;5.22;;;;;;;5.91;71.67;97526.35;1755172;81;27619;-84
2021/10/15 02:37:38;;;;;;;9.70;5.03;;;;;;;5.94;71.61;97531.33;1755031;81;25784;-85
2021/10/15 02:40:07;;;;;;;7.33;4.65;;;;;;;5.97;71.48;97527.47;1755148;81;25868;-85
2021/10/15 02:42:34;;;;;;;8.23;4.87;;;;;;;5.99;71.41;97531.64;1755152;81;26540;-84
2021/10/15 02:45:02;;;;;;;7.75;4.60;;;;;;;6.03;71.24;97532.95;1755175;81;25689;-84
2021/10/15 02:47:28;;;;;;;8.08;5.28;;;;;;;6.06;71.24;97527.22;1755160;80;27337;-85
2021/10/15 02:49:55;;;;;;;8.38;4.92;;;;;;;6.06;71.13;97532.57;1754986;81;25796;-85
2021/10/15 02:52:22;;;;;;;10.30;5.58;;;;;;;6.06;71.19;97535.25;1755138;81;25795;-85
2021/10/15 02:54:48;;;;;;;8.78;4.92;;;;;;;6.07;71.14;97532.91;1758629;80;25746;-85
2021/10/15 02:57:15;;;;;;;10.68;5.85;;;;;;;6.07;71.23;97535.58;1761877;80;25750;-84
2021/10/15 02:59:42;;;;;;;9.15;5.42;;;;;;;6.05;71.17;97540.79;1762093;80;27420;-85
2021/10/15 03:02:08;;;;;;;7.33;5.12;;;;;;;6.04;71.24;97543.97;1762001;80;25892;-85
2021/10/15 03:04:35;;;;;;;8.43;5.25;;;;;;;6.06;71.05;97542.45;1762125;79;25860;-85
2021/10/15 03:07:01;;;;;;;7.97;4.75;;;;;;;6.10;70.95;97539.76;1762014;79;25540;-84
2021/10/15 03:09:28;;;;;;;6.83;4.83;;;;;;;6.12;70.92;97543.93;1761773;80;25790;-85
2021/10/15 03:11:55;;;;;;;7.33;4.80;;;;;;;6.13;70.81;97545.59;1761855;80;27534;-85
2021/10/15 03:14:22;;;;;;;5.95;4.22;;;;;;;6.18;70.67;97542.86;1746554;81;25816;-82
2021/10/15 03:16:49;;;;;;;7.53;4.20;;;;;;;6.24;70.54;97543.50;1756309;80;25788;-87
2021/10/15 03:19:17;;;;;;;9.05;4.05;;;;;;;6.29;70.43;97539.75;1756101;80;25799;-85
2021/10/15 03:21:44;;;;;;;7.97;4.20;;;;;;;6.34;70.29;97545.41;1735224;80;25640;-85
2021/10/15 03:24:10;;;;;;;5.17;3.67;;;;;;;6.38;70.11;97541.36;1756499;80;28270;-84
2021/10/15 03:26:37;;;;;;;6.87;4.70;;;;;;;6.41;70.08;97532.94;1755594;80;25935;-85
2021/10/15 03:29:04;;;;;;;6.47;4.58;;;;;;;6.44;69.95;97535.27;1756201;81;25611;-84
2021/10/15 03:31:31;;;;;;;7.35;4.72;;;;;;;6.45;69.81;97540.45;1756043;80;25828;-84
2021/10/15 03:33:57;;;;;;;7.00;4.67;;;;;;;6.48;69.68;97536.06;1777912;79;25686;-84
2021/10/15 03:36:24;;;;;;;9.70;4.80;;;;;;;6.51;69.56;97537.56;1777894;79;27402;-85
2021/10/15 03:38:50;;;;;;;10.08;5.08;;;;;;;6.52;69.51;97523.10;1756349;79;25349;-83
2021/10/15 03:41:17;;;;;;;6.58;4.62;;;;;;;6.54;69.42;97519.73;1777375;80;25695;-85
2021/10/15 03:43:43;;;;;;;9.20;5.15;;;;;;;6.55;69.30;97519.23;1777434;79;25812;-84
2021/10/15 03:46:10;;;;;;;10.15;5.40;;;;;;;6.56;69.29;97519.56;1777502;80;25896;-85
2021/10/15 03:48:37;;;;;;;10.23;5.22;;;;;;;6.57;69.23;97526.08;1777603;80;27460;-86
2021/10/15 03:51:03;;;;;;;8.85;5.33;;;;;;;6.57;69.22;97523.40;1777746;80;25739;-83
2021/10/15 03:53:30;;;;;;;9.95;4.90;;;;;;;6.58;69.10;97523.73;1777912;79;25940;-82
2021/10/15 03:55:56;;;;;;;8.28;5.47;;;;;;;6.60;69.16;97528.41;1749464;80;25779;-84
2021/10/15 03:58:23;;;;;;;9.70;5.72;;;;;;;6.63;69.03;97532.07;1744506;82;25761;-85
2021/10/15 04:00:50;;;;;;;7.55;5.05;;;;;;;6.63;69.01;97530.73;1743973;82;27396;-85
2021/10/15 04:03:16;;;;;;;8.15;5.53;;;;;;;6.63;69.09;97530.73;1744256;82;25298;-84
2021/10/15 04:05:43;;;;;;;7.97;5.25;;;;;;;6.66;69.07;97527.66;1744330;82;25703;-84
2021/10/15 04:08:09;;;;;;;9.88;5.67;;;;;;;6.67;68.97;97527.98;1743279;80;25812;-84
2021/10/15 04:10:36;;;;;;;9.38;5.62;;;;;;;6.68;68.90;97528.82;1743683;82;26096;-84
2021/10/15 04:13:02;;;;;;;8.63;5.53;;;;;;;6.67;68.99;97531.17;1744349;82;28311;-84
2021/10/15 04:15:29;;;;;;;9.40;5.75;;;;;;;6.65;69.02;97537.22;1744124;82;26369;-84
2021/10/15 04:17:55;;;;;;;8.10;5.60;;;;;;;6.64;69.05;97533.70;1735018;82;25671;-84
2021/10/15 04:20:22;;;;;;;11.60;5.25;;;;;;;6.65;69.07;97534.55;1733152;82;25831;-83
2021/10/15 04:22:48;;;;;;;8.98;5.25;;;;;;;6.64;68.97;97532.37;1744531;82;25735;-84
2021/10/15 04:25:15;;;;;;;9.00;5.17;;;;;;;6.64;68.98;97532.37;1744388;82;27508;-84
2021/10/15 04:27:42;;;;;;;11.30;5.70;;;;;;;6.65;69.03;97534.03;1723220;80;26502;-84
2021/10/15 04:30:09;;;;;;;8.00;5.05;;;;;;;6.70;69.35;97530.81;1744269;82;25690;-84
2021/10/15 04:32:36;;;;;;;8.80;5.58;;;;;;;6.80;69.56;97525.50;1744442;82;25912;-84
2021/10/15 04:35:03;;;;;;;8.23;5.33;;;;;;;6.85;69.19;97523.11;1744226;80;25723;-86
2021/10/15 04:37:30;;;;;;;8.75;5.28;;;;;;;6.88;69.00;97522.71;1744252;82;26953;-83
2021/10/15 04:39:56;;;;;;;6.78;4.70;;;;;;;6.85;68.82;97526.30;1744313;82;25790;-83
2021/10/15 04:42:23;;;;;;;8.78;5.12;;;;;;;6.83;68.88;97527.82;1744321;82;25929;-84
2021/10/15 04:44:51;;;;;;;8.88;5.53;;;;;;;6.80;69.09;97520.12;1744123;82;25819;-84
2021/10/15 04:47:17;;;;;;;9.05;5.87;;;;;;;6.77;69.19;97522.34;1744490;82;25741;-83
2021/10/15 04:49:44;;;;;;;8.90;5.72;;;;;;;6.74;69.16;97523.56;1744231;82;27518;-84
2021/10/15 04:52:11;;;;;;;7.72;5.03;;;;;;;6.75;69.14;97518.53;1744278;82;25800;-84
2021/10/15 04:54:37;;;;;;;9.03;5.25;;;;;;;6.73;69.23;97507.14;1744117;80;25755;-83
2021/10/15 04:57:04;;;;;;;7.55;5.03;;;;;;;6.70;69.30;97506.16;1744111;82;25897;-83
2021/10/15 04:59:31;;;;;;;9.35;5.47;;;;;;;6.70;69.22;97512.88;1744384;82;26491;-84
2021/10/15 05:01:57;;;;;;;9.28;5.53;;;;;;;6.70;69.23;97515.55;1744296;82;27426;-83
2021/10/15 05:04:24;;;;;;;8.58;5.30;;;;;;;6.65;69.30;97513.08;1744303;82;25990;-83
2021/10/15 05:06:50;;;;;;;8.60;5.25;;;;;;;6.59;69.31;97512.50;1744410;82;25688;-84
2021/10/15 05:11:54;;;;;;;8.30;5.47;;;;;;;6.56;69.42;97517.70;1743874;80;25906;-84
2021/10/15 05:14:21;;;;;;;8.28;5.20;;;;;;;6.52;69.30;97521.77;1744169;82;27545;-84
2021/10/15 05:16:48;;;;;;;8.50;4.87;;;;;;;6.52;69.34;97508.36;1743840;80;26415;-85
2021/10/15 05:19:14;;;;;;;5.47;4.58;;;;;;;6.55;69.46;97513.36;1743830;82;25262;-83
2021/10/15 05:21:41;;;;;;;8.70;5.72;;;;;;;6.57;69.45;97518.55;1743984;81;25898;-84
2021/10/15 05:24:07;;;;;;;7.60;4.60;;;;;;;6.60;69.56;97512.31;1744388;82;25490;-84
2021/10/15 05:26:34;;;;;;;8.13;4.80;;;;;;;6.60;69.56;97513.66;1744430;82;27412;-84
2021/10/15 05:29:01;;;;;;;7.55;5.05;;;;;;;6.63;69.36;97516.48;1744142;82;26425;-85
2021/10/15 05:31:27;;;;;;;10.95;5.40;;;;;;;6.68;69.34;97518.09;1744351;80;25276;-84
2021/10/15 05:33:54;;;;;;;6.97;4.87;;;;;;;6.72;69.24;97511.34;1744209;82;25886;-84
2021/10/15 05:36:20;;;;;;;8.85;4.80;;;;;;;6.74;69.18;97518.20;1744282;82;25808;-84
2021/10/15 05:38:47;;;;;;;9.15;4.55;;;;;;;6.77;69.13;97507.08;1744135;82;27005;-84
2021/10/15 05:41:14;;;;;;;9.65;4.95;;;;;;;6.81;69.14;97511.06;1744102;81;26232;-84
2021/10/15 05:43:40;;;;;;;12.88;5.47;;;;;;;6.81;69.17;97512.91;1744367;82;25784;-84
2021/10/15 05:46:07;;;;;;;9.13;4.83;;;;;;;6.77;69.09;97507.08;1744368;82;25855;-84
2021/10/15 05:48:34;;;;;;;8.73;5.45;;;;;;;6.76;69.03;97510.77;1744405;82;25885;-84
2021/10/15 05:51:01;;;;;;;7.75;5.40;;;;;;;6.80;69.10;97506.72;1744260;81;28296;-85
2021/10/15 05:53:27;;;;;;;7.15;5.05;;;;;;;6.83;69.25;97499.64;1744125;82;25695;-84
2021/10/15 06:01:06;;;;;;;9.53;5.03;;;;;;;6.90;69.43;97500.23;1756426;80;26316;-84
2021/10/15 06:03:32;;;;;;;11.63;5.78;;;;;;;6.84;69.45;97499.97;1756474;80;27420;-84
2021/10/15 06:14:14;;;;;;;13.18;5.20;;;;;;;6.82;69.69;97499.32;1750537;80;25261;-83
2021/10/15 06:16:13;;;;;;;10.40;5.92;;;;;;;6.80;69.74;97498.66;1737547;80;28418;-84
2021/10/15 06:18:38;;;;;;;13.78;5.15;;;;;;;6.78;69.80;97495.33;1755783;80;25802;-83
2021/10/15 06:21:06;;;;;;;9.73;5.40;;;;;;;6.77;69.91;97501.71;1756476;80;25770;-83
2021/10/15 06:23:33;;;;;;;8.55;4.87;;;;;;;6.72;69.82;97493.41;1756350;80;25852;-84
2021/10/15 06:26:01;;;;;;;9.05;5.10;;;;;;;6.76;69.90;97500.05;1756454;81;25815;-84
2021/10/15 06:28:28;;;;;;;7.75;4.97;;;;;;;6.84;69.92;97488.41;1756428;80;27440;-84
2021/10/15 06:30:54;;;;;;;8.53;5.10;;;;;;;6.91;69.98;97490.66;1756302;80;25806;-83
2021/10/15 06:33:21;;;;;;;9.38;5.12;;;;;;;6.93;70.07;97487.79;1756386;80;25705;-84
2021/10/15 06:35:48;;;;;;;5.75;4.30;;;;;;;6.99;70.03;97487.06;1756348;80;25786;-84
2021/10/15 06:38:14;;;;;;;7.67;4.78;;;;;;;7.07;70.04;97491.80;1756024;80;25799;-84
2021/10/15 06:40:41;;;;;;;8.63;5.35;;;;;;;7.17;70.13;97488.83;1756255;80;28409;-83
2021/10/15 06:43:09;;;;;;;6.45;4.80;;;;;;;7.27;70.21;97492.55;1756215;80;25744;-84
2021/10/15 06:45:36;;;;;;;9.20;4.20;;;;;;;7.37;70.14;97487.20;1756256;80;25755;-83
2021/10/15 06:48:03;;;;;;;8.35;4.42;;;;;;;7.45;69.95;97485.77;1756393;80;26677;-84
2021/10/15 06:50:30;;;;;;;6.78;4.37;;;;;;;7.51;69.77;97483.64;1756561;80;26420;-84
2021/10/15 06:52:57;;;;;;;8.88;5.25;;;;;;;7.57;69.68;97474.84;1756431;80;27386;-85
2021/10/15 06:55:24;;;;;;;6.47;4.35;;;;;;;7.66;69.77;97482.25;1753446;80;25304;-85
2021/10/15 06:57:52;;;;;;;7.85;4.50;;;;;;;7.73;69.74;97475.63;1735271;81;25771;-85
2021/10/15 07:00:18;;;;;;;9.53;4.40;;;;;;;7.77;69.55;97478.22;1739182;81;26543;-85
2021/10/15 07:02:46;;;;;;;7.60;4.12;;;;;;;7.81;69.67;97472.80;1748182;81;25712;-88
2021/10/15 07:05:13;;;;;;;8.55;4.40;;;;;;;7.87;69.55;97467.47;1753720;81;27284;-85
2021/10/15 07:07:40;;;;;;;6.35;4.42;;;;;;;7.94;69.52;97471.58;1741775;81;25759;-83
2021/10/15 07:10:08;;;;;;;7.53;4.45;;;;;;;8.03;69.43;97470.41;1741958;81;26315;-85
2021/10/15 07:12:44;;;;;;;6.37;4.28;;;;;;;8.16;69.42;97469.18;1741621;81;25676;-86
2021/10/15 07:15:15;;;;;;;5.87;3.58;;;;;;;8.30;69.27;97468.27;1766873;78;25908;-86
2021/10/15 07:17:42;;;;;;;5.08;3.50;;;;;;;8.50;69.20;97466.25;1787153;80;28297;-87
2021/10/15 07:20:11;;;;;;;4.92;3.17;;;;;;;8.69;69.03;97463.38;1786995;78;25819;-87
2021/10/15 07:22:37;;;;;;;6.40;3.55;;;;;;;8.84;68.77;97455.48;1787108;78;25727;-86
2021/10/15 07:25:06;;;;;;;6.35;3.42;;;;;;;8.97;68.68;97456.89;1786904;78;25875;-85
2021/10/15 07:27:34;;;;;;;6.70;3.05;;;;;;;9.10;68.56;97452.60;1787199;78;25836;-86
2021/10/15 07:30:02;;;;;;;5.33;3.27;;;;;;;9.24;68.23;97462.40;1754916;80;28201;-85
2021/10/15 07:32:28;;;;;;;4.80;3.30;;;;;;;9.39;68.09;97457.69;1787022;78;25819;-86
2021/10/15 07:34:55;;;;;;;3.55;2.70;;;;;;;9.61;67.76;97456.51;1786587;80;25825;-87
2021/10/15 07:37:22;;;;;;;4.30;3.37;;;;;;;9.80;67.54;97452.69;1787127;78;25852;-86
2021/10/15 07:39:50;;;;;;;3.60;2.75;;;;;;;10.02;67.34;97452.30;1789140;78;25741;-85
2021/10/15 07:42:16;;;;;;;3.55;2.83;;;;;;;10.22;66.97;97441.56;1754863;81;27524;-86
2021/10/15 07:44:43;;;;;;;4.33;2.65;;;;;;;10.41;66.78;97441.22;1786840;80;25755;-86
2021/10/15 07:47:10;;;;;;;3.77;3.20;;;;;;;10.61;66.39;97443.91;1786887;78;25232;-86
2021/10/15 07:49:38;;;;;;;4.67;2.83;;;;;;;10.80;66.18;97430.36;1786938;78;25772;-86
2021/10/15 07:52:06;;;;;;;4.62;3.12;;;;;;;10.98;65.90;97436.96;1754644;80;25653;-86
2021/10/15 07:54:34;;;;;;;4.10;2.98;;;;;;;11.21;65.46;97445.91;1771797;80;27526;-88
2021/10/15 07:57:02;;;;;;;4.37;2.95;;;;;;;11.40;65.50;97436.87;1732642;81;25737;-84
2021/10/15 07:59:28;;;;;;;5.08;3.47;;;;;;;11.58;65.03;97436.16;1755766;81;25866;-85
2021/10/15 08:01:55;;;;;;;4.30;3.50;;;;;;;11.70;64.69;97436.61;1756176;80;25907;-85
2021/10/15 08:04:21;;;;;;;4.03;3.20;;;;;;;11.82;64.35;97428.14;1735144;81;25815;-86
2021/10/15 08:06:49;;;;;;;4.35;3.40;;;;;;;11.95;64.07;97437.20;1726189;80;28025;-89
2021/10/15 08:09:16;;;;;;;5.97;3.33;;;;;;;12.12;63.98;97439.66;1744494;80;25738;-86
2021/10/15 08:11:42;;;;;;;4.67;3.25;;;;;;;12.25;63.49;97431.44;1760804;80;25645;-86
2021/10/15 08:14:09;;;;;;;5.87;3.40;;;;;;;12.48;63.36;97422.69;1766515;80;26257;-88
2021/10/15 08:16:36;;;;;;;4.30;3.05;;;;;;;12.63;62.97;97417.75;1740161;81;25696;-86
2021/10/15 08:19:03;;;;;;;6.62;3.40;;;;;;;12.71;62.59;97420.16;1753396;81;27437;-86
2021/10/15 08:21:29;;;;;;;5.35;3.70;;;;;;;12.80;62.37;97410.68;1739165;81;25804;-86
2021/10/15 08:23:56;;;;;;;5.50;2.85;;;;;;;12.95;61.95;97412.50;1742267;79;25785;-88
2021/10/15 08:26:24;;;;;;;4.10;2.90;;;;;;;13.13;61.90;97408.96;1756298;80;25896;-87
2021/10/15 08:28:58;;;;;;;5.40;3.08;;;;;;;13.24;61.44;97412.30;1729279;80;25826;-86
2021/10/15 08:31:19;;;;;;;4.78;3.12;;;;;;;13.45;61.42;97412.33;1749465;80;27639;-86
2021/10/15 08:33:46;;;;;;;3.65;3.05;;;;;;;13.53;61.01;97411.16;1756292;80;25736;-87
2021/10/15 08:36:15;;;;;;;4.35;3.22;;;;;;;13.58;60.46;97409.95;1756278;80;25788;-89
2021/10/15 08:38:41;;;;;;;6.80;3.83;;;;;;;13.67;60.13;97407.21;1731721;80;26339;-88
2021/10/15 08:41:08;;;;;;;3.72;2.95;;;;;;;13.84;60.11;97405.51;1747356;80;25746;-87
2021/10/15 08:43:41;;;;;;;4.37;3.27;;;;;;;14.04;59.76;97407.91;1762849;80;27430;-83
2021/10/15 08:46:08;;;;;;;5.50;3.42;;;;;;;14.20;59.86;97405.05;1743155;80;25773;-88
2021/10/15 08:48:39;;;;;;;7.78;3.87;;;;;;;14.26;59.24;97398.66;1755270;80;25734;-86
2021/10/15 08:51:07;;;;;;;5.05;3.90;;;;;;;14.33;58.91;97402.11;1755708;80;25738;-87
2021/10/15 08:53:53;;;;;;;6.53;3.70;;;;;;;14.42;58.73;97410.23;1756300;80;25879;-85
2021/10/15 08:56:24;;;;;;;6.30;3.95;;;;;;;14.50;58.33;97403.61;1752325;80;27325;-87
2021/10/15 08:59:03;;;;;;;4.58;3.30;;;;;;;14.57;58.13;97394.83;1741785;81;25767;-86
2021/10/15 09:01:45;;;;;;;5.78;3.67;;;;;;;14.72;58.12;97404.16;1741867;81;25754;-87
2021/10/15 09:04:17;;;;;;;4.97;3.80;;;;;;;14.80;56.06;97399.41;1787577;78;26393;-87
2021/10/15 09:06:42;;;;;;;4.22;3.08;;;;;;;14.83;57.30;97395.70;1733324;80;25717;-88
2021/10/15 09:09:10;;;;;;;4.85;3.35;;;;;;;14.82;56.80;97386.42;1786870;78;27518;-87
2021/10/15 09:11:46;;;;;;;4.50;2.95;;;;;;;14.88;57.03;97386.80;1766463;78;26357;-89
2021/10/15 09:14:21;;;;;;;8.23;4.10;;;;;;;15.05;56.56;97393.16;1734617;80;25740;-87
2021/10/15 09:17:01;;;;;;;5.78;3.15;;;;;;;15.08;56.68;97394.05;1787076;80;26216;-85
2021/10/15 09:19:45;;;;;;;4.15;2.92;;;;;;;15.17;56.43;97392.60;1735849;80;25783;-86
2021/10/15 09:22:33;;;;;;;7.70;2.98;;;;;;;15.20;55.71;97386.69;1789157;78;28492;-86
2021/10/15 09:25:11;;;;;;;4.78;2.92;;;;;;;15.26;56.20;97376.73;1769486;78;25921;-87
2021/10/15 09:27:46;;;;;;;4.83;2.25;;;;;;;15.34;56.10;97380.41;1785349;80;25842;-87
2021/10/15 09:30:17;;;;;;;4.50;2.60;;;;;;;15.42;55.95;97373.25;1748887;80;26572;-88
2021/10/15 09:32:49;;;;;;;5.97;2.30;;;;;;;15.43;55.76;97371.65;1772285;78;25884;-87
2021/10/15 09:35:19;;;;;;;3.10;2.40;;;;;;;15.45;55.61;97362.72;1787256;80;27334;-87
2021/10/15 09:37:50;;;;;;;5.12;2.35;;;;;;;15.53;55.60;97366.93;1786655;78;25832;-87
2021/10/15 09:40:21;;;;;;;3.70;2.40;;;;;;;15.69;56.00;97363.45;1788733;78;25786;-87
2021/10/15 09:42:54;;;;;;;3.22;2.30;;;;;;;15.81;55.26;97357.41;1754729;80;25686;-85
2021/10/15 09:45:30;;;;;;;2.12;1.85;;;;;;;15.92;55.31;97359.77;1787299;80;25791;-86
2021/10/15 09:48:03;;;;;;;2.85;2.05;;;;;;;15.89;54.90;97353.45;1787302;78;27358;-88
2021/10/15 09:50:35;;;;;;;2.17;1.77;;;;;;;15.91;54.89;97354.03;1731043;81;25851;-87
2021/10/15 09:53:04;;;;;;;3.05;2.10;;;;;;;15.99;54.79;97344.62;1787012;78;25725;-86
2021/10/15 09:55:38;;;;;;;2.85;1.90;;;;;;;16.07;54.60;97349.11;1777364;80;25842;-89
2021/10/15 09:58:21;;;;;;;3.08;1.92;;;;;;;16.03;54.23;97345.25;1725992;81;25691;-85
2021/10/15 10:00:51;;;;;;;4.83;2.10;;;;;;;16.08;54.32;97342.59;1719979;82;27512;-86
2021/10/15 10:03:20;;;;;;;2.77;2.30;;;;;;;16.06;54.02;97348.82;1721140;82;25752;-87
2021/10/15 10:05:47;;;;;;;2.70;1.87;;;;;;;15.96;53.84;97352.74;1744335;82;25768;-86
2021/10/15 10:08:15;;;;;;;2.65;2.00;;;;;;;15.81;53.56;97348.42;1744254;82;25893;-85
2021/10/15 10:10:44;;;;;;;3.45;1.92;;;;;;;15.67;53.70;97341.11;1744464;82;25947;-85
2021/10/15 10:13:13;;;;;;;3.87;1.92;;;;;;;15.58;53.71;97343.11;1744352;82;27345;-86
2021/10/15 10:15:44;;;;;;;2.22;1.70;;;;;;;15.44;53.71;97336.58;1744311;82;25824;-86
2021/10/15 10:18:31;;;;;;;3.00;2.30;;;;;;;15.38;53.74;97330.73;1714505;82;25818;-86
2021/10/15 10:21:05;;;;;;;2.85;1.70;;;;;;;15.38;53.85;97338.07;1739467;82;26317;-85
2021/10/15 10:23:43;;;;;;;2.58;1.50;;;;;;;15.33;53.91;97323.86;1744101;81;25925;-87
2021/10/15 10:26:13;;;;;;;2.02;1.65;;;;;;;15.27;53.82;97323.46;1744367;81;27353;-86
2021/10/15 10:28:40;;;;;;;1.80;1.70;;;;;;;15.18;53.72;97318.13;1727875;82;26116;-86
2021/10/15 10:31:22;;;;;;;5.58;1.92;;;;;;;15.16;53.94;97312.63;1740846;82;25457;-86
2021/10/15 10:34:00;;;;;;;2.52;1.77;;;;;;;15.20;54.03;97313.27;1744541;81;25807;-86
2021/10/15 10:36:31;;;;;;;2.65;2.00;;;;;;;15.33;54.03;97311.63;1744040;82;25726;-88
2021/10/15 10:39:20;;;;;;;5.25;2.08;;;;;;;15.40;54.02;97312.29;1744507;82;27365;-85
2021/10/15 10:42:15;;;;;;;2.27;1.80;;;;;;;15.54;54.29;97312.81;1744221;82;25966;-86
2021/10/15 10:44:56;;;;;;;2.47;1.82;;;;;;;15.55;53.82;97309.59;1744465;82;25713;-86
2021/10/15 10:47:26;;;;;;;2.85;2.10;;;;;;;15.61;53.94;97307.23;1744332;81;25832;-86
2021/10/15 10:50:06;;;;;;;2.72;1.82;;;;;;;15.78;53.95;97297.20;1744364;81;26494;-85
2021/10/15 10:52:53;;;;;;;2.67;2.12;;;;;;;15.85;53.50;97295.95;1744457;81;27350;-85
2021/10/15 10:55:54;;;;;;;5.30;2.08;;;;;;;15.89;53.37;97290.84;1744484;82;25887;-85
2021/10/15 10:58:36;;;;;;;4.78;2.40;;;;;;;16.03;53.50;97285.36;1720357;82;25795;-86
2021/10/15 11:01:25;;;;;;;3.42;2.10;;;;;;;16.12;53.11;97285.22;1754996;81;25906;-86
2021/10/15 11:03:52;;;;;;;2.33;2.12;;;;;;;16.19;53.17;97280.41;1698195;82;25793;-85
2021/10/15 11:06:19;;;;;;;4.53;2.12;;;;;;;16.29;52.90;97277.57;1744913;81;27321;-85
2021/10/15 11:08:46;;;;;;;4.03;2.27;;;;;;;16.36;52.83;97276.30;1754900;81;26363;-87
2021/10/15 11:11:33;;;;;;;2.85;1.82;;;;;;;16.38;52.49;97267.34;1754888;81;25792;-87
2021/10/15 11:13:56;;;;;;;3.42;2.12;;;;;;;16.51;52.72;97264.80;1722448;82;25799;-85
2021/10/15 11:16:30;;;;;;;2.42;2.00;;;;;;;16.75;52.67;97266.23;1754786;81;25779;-85
2021/10/15 11:18:56;;;;;;;5.40;2.10;;;;;;;16.90;52.36;97259.58;1757170;81;27546;-86
2021/10/15 11:21:25;;;;;;;4.20;2.45;;;;;;;16.88;51.61;97259.03;1746506;81;25747;-90
2021/10/15 11:23:55;;;;;;;2.52;2.12;;;;;;;16.83;51.56;97246.69;1738689;81;25325;-87
2021/10/15 11:26:35;;;;;;;2.52;2.02;;;;;;;16.78;51.24;97245.83;1738745;81;25807;-85
2021/10/15 11:29:01;;;;;;;1.98;1.75;;;;;;;16.75;51.40;97236.25;1730311;81;25778;-87
2021/10/15 11:31:28;;;;;;;6.08;2.40;;;;;;;16.79;51.25;97241.45;1738621;81;27832;-86
2021/10/15 11:34:11;;;;;;;2.80;2.30;;;;;;;16.78;51.25;97241.20;1738687;81;25752;-86
2021/10/15 11:36:38;;;;;;;4.83;2.77;;;;;;;16.84;51.39;97233.34;1738232;81;25684;-87
2021/10/15 11:39:04;;;;;;;8.58;4.08;;;;;;;17.02;51.41;97243.64;1738849;81;25771;-87
2021/10/15 11:41:31;;;;;;;7.90;3.47;;;;;;;17.14;51.23;97230.68;1738759;81;25695;-87
2021/10/15 11:43:58;;;;;;;4.78;2.37;;;;;;;17.32;51.13;97231.66;1738627;81;26804;-87
2021/10/15 11:46:30;;;;;;;3.35;1.95;;;;;;;17.46;50.91;97230.16;1738698;81;25794;-87
2021/10/15 11:48:56;;;;;;;4.95;2.33;;;;;;;17.52;50.57;97218.19;1756760;81;25737;-87
2021/10/15 11:51:26;;;;;;;10.93;5.47;;;;;;;17.49;50.40;97210.55;1759008;81;25842;-86
2021/10/15 11:53:59;;;;;;;6.00;3.90;;;;;;;17.57;50.55;97210.06;1755044;80;25776;-87
2021/10/15 11:56:30;;;;;;;2.00;1.80;;;;;;;17.55;50.01;97201.31;1755141;80;27380;-90
2021/10/15 11:58:59;;;;;;;2.35;2.08;;;;;;;17.54;49.75;97199.66;1754437;80;26472;-88